Star Princess — ZCDD6 — position and weather

sailwx.info

Track history (hours):
 
Tides and Currents Weather Stations Pressure Air Temp Water Temp Dewpoint Dewpoint Depression Visibility Wind Speed Wind Dir Waves Ship Positions

Star Princess

Operator: Princess Cruises

Last reported at 2019-May-20 14:00 UTC. Time now 2019-May-20 16:27 UTC.
Position N 49°30' W 127°36'.

Length 289.6 m; beam 36 m; draft 8.4 m.

Type: Ship. MMSI: 310361000.

Wind from 120 at 26 knots

Barometer 1006.7 mb
Air temperature 11.3 ° C
Visibility: greater than 10.8 NM
Dewpoint 7.1 ° C
Water temperature 11.0 ° C

Date/timePositionNaut miles runAvg speedWind from/ knotsBaromVisibWave heightAir tempDewpointWater temp
2019-May-20 14:00N 49°30' W 127°36'3917.3 120 / 261006.710.8 11.3 7.111.0
2019-May-20 11:44N 49°07' W 126°47'717.5
2019-May-20 11:19N 49°03' W 126°38'617.6
2019-May-20 11:00N 49°00' W 126°30'917.9
2019-May-20 10:30N 48°56' W 126°19'917.8
2019-May-20 10:00N 48°51' W 126°08'7474.4
2019-May-20 10:00N 48°54' W 126°18'1633.9 140 / 251007.910.8 11.0 9.012.0
2019-May-20 09:30N 48°46' W 125°56'918.0
2019-May-20 09:01N 48°42' W 125°44'917.9
2019-May-20 08:30N 48°37' W 125°32'918.4
2019-May-20 08:00N 48°33' W 125°21'918.1
2019-May-20 07:30N 48°31' W 125°07'917.8
2019-May-20 07:01N 48°31' W 124°54'917.7
2019-May-20 06:30N 48°30' W 124°40'918.8
2019-May-20 06:01N 48°26' W 124°27'2448.2
2019-May-20 05:30N 48°17' W 123°54'510.3
2019-May-20 04:58N 48°16' W 123°45'611.2
2019-May-20 04:29N 48°15' W 123°37'4 7.2
2019-May-20 03:56N 48°15' W 123°32'511.8
2019-May-20 03:30N 48°12' W 123°25'610.8
2019-May-20 03:00N 48°10' W 123°18'917.4
2019-May-20 02:30N 48°13' W 123°05'917.5
2019-May-20 02:00N 48°12' W 122°52'816.1
2019-May-20 01:30N 48°08' W 122°42'815.8
2019-May-20 01:00N 48°01' W 122°37'816.8
2019-May-20 00:30N 47°55' W 122°29'918.1
2019-May-20 00:00N 47°46' W 122°26'816.5
2019-May-19 23:31N 47°38' W 122°26'2 3.6
2019-May-19 23:00N 47°38' W 122°23'0 0.0
2019-May-19 22:30N 47°38' W 122°23'0 0.0
2019-May-19 22:00N 47°38' W 122°23'0 0.0
2019-May-19 21:30N 47°38' W 122°23'0 0.0
2019-May-19 21:00N 47°38' W 122°23'0 0.0
2019-May-19 20:30N 47°38' W 122°23'0 0.0
2019-May-19 20:00N 47°38' W 122°23'0 0.0
2019-May-19 19:30N 47°38' W 122°23'0 0.0
2019-May-19 19:00N 47°38' W 122°23'0 0.0
2019-May-19 18:30N 47°38' W 122°23'0 0.0
2019-May-19 18:00N 47°38' W 122°23'0 0.0
2019-May-19 17:30N 47°38' W 122°23'0 0.0
2019-May-19 17:00N 47°38' W 122°23'0 0.0
2019-May-19 16:30N 47°38' W 122°23'0 0.0
2019-May-19 16:00N 47°38' W 122°23'0 0.0
2019-May-19 15:30N 47°38' W 122°23'0 0.0
2019-May-19 15:00N 47°38' W 122°23'0 0.0
2019-May-19 14:30N 47°38' W 122°23'0 0.0
2019-May-19 14:00N 47°38' W 122°23'0 0.0
2019-May-19 13:30N 47°38' W 122°23'0 0.0
2019-May-19 13:00N 47°38' W 122°23'0 0.0
2019-May-19 12:30N 47°38' W 122°23'1 2.7
2019-May-19 12:00N 47°37' W 122°25'611.1
2019-May-19 11:30N 47°42' W 122°28'714.1
2019-May-19 11:00N 47°49' W 122°28'815.1
2019-May-19 10:30N 47°56' W 122°32'1019.8
2019-May-19 10:00N 48°05' W 122°39'1020.0
2019-May-19 09:30N 48°11' W 122°51'1019.5
2019-May-19 09:00N 48°12' W 123°06'918.8
2019-May-19 08:30N 48°10' W 123°19'811.1
2019-May-19 07:45N 48°15' W 123°30'518.4
2019-May-19 07:27N 48°20' W 123°27'4 9.8
2019-May-19 07:00N 48°24' W 123°24'1 2.1
2019-May-19 06:30N 48°25' W 123°24'0 0.0
2019-May-19 05:57N 48°25' W 123°24'0 0.0
2019-May-19 05:29N 48°25' W 123°24'0 0.0
2019-May-19 04:59N 48°25' W 123°24'0 0.0
2019-May-19 04:26N 48°25' W 123°24'0 0.0
2019-May-19 03:59N 48°25' W 123°24'0 0.0
2019-May-19 03:28N 48°25' W 123°24'0 0.0
2019-May-19 02:58N 48°25' W 123°24'0 0.0
2019-May-19 02:28N 48°25' W 123°24'0 0.0
2019-May-19 01:58N 48°25' W 123°24'0 0.7
2019-May-19 01:30N 48°25' W 123°24'2 3.4
2019-May-19 01:00N 48°23' W 123°24'511.1
2019-May-19 00:30N 48°18' W 123°25'917.4
2019-May-19 00:00N 48°13' W 123°37'1018.8
2019-May-18 23:30N 48°13' W 123°51'919.2
2019-May-18 23:00N 48°16' W 124°04'1019.1
2019-May-18 22:30N 48°20' W 124°18'918.2
2019-May-18 22:00N 48°24' W 124°30'1019.6
2019-May-18 21:30N 48°28' W 124°43'1020.6
2019-May-18 21:00N 48°29' W 124°59'1019.1
2019-May-18 20:30N 48°31' W 125°13'918.4
2019-May-18 20:00N 48°36' W 125°24'918.4
2019-May-18 19:30N 48°42' W 125°35'815.6
2019-May-18 19:01N 48°47' W 125°44'917.3
2019-May-18 18:30N 48°53' W 125°54'816.4
2019-May-18 18:01N 48°58' W 126°03'918.3
2019-May-18 17:31N 49°04' W 126°14'918.0
2019-May-18 17:00N 49°09' W 126°25'1018.3
2019-May-18 16:29N 49°14' W 126°38'9317.5
2019-May-18 11:09N 50°15' W 128°27'317.0
2019-May-18 10:59N 50°17' W 128°30'1217.5
2019-May-18 10:18N 50°25' W 128°44'519.1
2019-May-18 10:00N 50°29' W 128°50'1019.3
2019-May-18 09:28N 50°36' W 129°01'1119.9
2019-May-18 08:55N 50°44' W 129°14'1319.5
2019-May-18 08:15N 50°53' W 129°29'619.1
2019-May-18 07:55N 50°57' W 129°36'818.5
2019-May-18 07:28N 51°03' W 129°46'6715.0
2019-May-18 03:00N 51°48' W 131°06'3030.3 290 / 491003.6 5.4 11.0 9.011.0
2019-May-18 02:00N 52°12' W 131°36'6913.9 280 / 411003.1 5.4 11.0 9.011.0
2019-May-17 21:00N 53°06' W 132°48'14120.1 310 / 471012.710.8 8.5 7.010.0
2019-May-17 14:00N 55°18' W 134°12'   320 / 251003.5 5.4 8.5 7.010.0
2019-May-15 03:00N 56°06' W 132°48'79 5.2 140 / 261008.710.8 10.0 7.5 9.0
2019-May-14 11:51N 55°09' W 131°11'1911.9
2019-May-14 10:16N 54°50' W 131°08'830.0
2019-May-14 10:00N 54°42' W 131°06'6 8.7 190 / 131014.410.8 9.5 7.410.0
2019-May-14 09:18N 54°39' W 131°16'512.0
2019-May-14 08:52N 54°34' W 131°16'412.2
2019-May-14 08:30N 54°30' W 131°16'612.2
2019-May-14 08:00N 54°24' W 131°15'612.1
2019-May-14 07:30N 54°18' W 131°15'612.3
2019-May-14 07:00N 54°12' W 131°15'612.2
2019-May-14 06:31N 54°06' W 131°15'612.0
2019-May-14 06:01N 53°60' W 131°12'611.9
2019-May-14 05:30N 53°54' W 131°08'612.1
2019-May-14 05:00N 53°49' W 131°04'611.9
2019-May-14 04:30N 53°43' W 131°00'612.1
2019-May-14 04:00N 53°38' W 130°55'612.2
2019-May-14 03:30N 53°32' W 130°52'612.3
2019-May-14 03:00N 53°27' W 130°48'612.4
2019-May-14 02:31N 53°22' W 130°42'713.5
2019-May-14 02:00N 53°16' W 130°36'714.2
2019-May-14 01:30N 53°10' W 130°29'714.1
2019-May-14 01:00N 53°04' W 130°23'714.1
2019-May-14 00:31N 52°58' W 130°16'714.0
2019-May-14 00:00N 52°53' W 130°09'814.3
2019-May-13 23:25N 52°46' W 130°01'613.9
2019-May-13 23:00N 52°41' W 129°56'713.9
2019-May-13 22:29N 52°35' W 129°49'713.7
2019-May-13 22:01N 52°30' W 129°43'3189.0
2019-May-13 22:00N 52°30' W 129°48'918.9 160 / 221013.910.8 10.5 8.510.0
2019-May-13 21:30N 52°24' W 129°36'713.6
2019-May-13 21:01N 52°19' W 129°30'713.7
2019-May-13 20:30N 52°13' W 129°24'713.8
2019-May-13 20:00N 52°07' W 129°17'914.1
2019-May-13 19:22N 52°00' W 129°09'514.2
2019-May-13 19:00N 51°56' W 129°03'814.1
2019-May-13 18:27N 51°49' W 128°57'613.8
2019-May-13 18:00N 51°44' W 128°51'713.8
2019-May-13 17:30N 51°39' W 128°44'713.6
2019-May-13 17:01N 51°33' W 128°38'917.7
2019-May-13 16:31N 51°26' W 128°30'918.1
2019-May-13 16:01N 51°18' W 128°22'917.8
2019-May-13 15:31N 51°12' W 128°12'918.1
2019-May-13 15:00N 51°06' W 128°01'1117.6
2019-May-13 14:24N 50°60' W 127°47'1433.9
2019-May-13 14:00N 50°48' W 127°36'796.7 130 / 211013.010.8 16.012.814.0
2019-May-13 13:55N 50°55' W 127°39'819.0
2019-May-13 13:28N 50°50' W 127°28'918.8
2019-May-13 13:00N 50°47' W 127°15'918.9
2019-May-13 12:30N 50°43' W 127°01'918.4
2019-May-13 12:00N 50°39' W 126°48'917.4
2019-May-13 11:28N 50°32' W 126°40'1119.3
2019-May-13 10:53N 50°30' W 126°22'819.2
2019-May-13 10:28N 50°28' W 126°10'919.2
2019-May-13 10:00N 50°25' W 125°57'1020.0
2019-May-13 09:30N 50°22' W 125°42'919.1
2019-May-13 09:00N 50°20' W 125°27'816.4
2019-May-13 08:30N 50°13' W 125°23'612.2
2019-May-13 08:00N 50°07' W 125°19'713.5
2019-May-13 07:30N 50°01' W 125°13'613.0
2019-May-13 07:00N 49°57' W 125°06'612.7
2019-May-13 06:30N 49°53' W 124°59'612.7
2019-May-13 06:00N 49°49' W 124°51'612.7
2019-May-13 05:30N 49°45' W 124°43'612.8
2019-May-13 05:00N 49°41' W 124°35'612.7
2019-May-13 04:30N 49°37' W 124°28'612.9
2019-May-13 04:00N 49°33' W 124°19'815.0
2019-May-13 03:28N 49°29' W 124°09'714.7
2019-May-13 03:00N 49°26' W 123°59'715.0
2019-May-13 02:30N 49°24' W 123°49'815.1
2019-May-13 02:00N 49°22' W 123°37'7640.2
2019-May-13 02:00N 49°24' W 123°48'1429.9 100 / 241016.010.8 16.012.814.0
2019-May-13 01:30N 49°20' W 123°27'714.2
2019-May-13 01:00N 49°20' W 123°16'611.7
2019-May-13 00:30N 49°18' W 123°07'1 2.2
2019-May-13 00:00N 49°17' W 123°06'0 0.0
2019-May-12 23:30N 49°17' W 123°06'0 0.0
2019-May-12 23:00N 49°17' W 123°06'0 0.0
2019-May-12 22:30N 49°17' W 123°06'0 0.0
2019-May-12 22:00N 49°17' W 123°06'0 0.0
2019-May-12 21:29N 49°17' W 123°06'0 0.0
2019-May-12 20:59N 49°17' W 123°06'0 0.0
2019-May-12 20:29N 49°17' W 123°06'0 0.0
2019-May-12 19:59N 49°17' W 123°06'0 0.0
2019-May-12 19:28N 49°17' W 123°06'0 0.0
2019-May-12 18:58N 49°17' W 123°06'0 0.0
2019-May-12 18:28N 49°17' W 123°06'0 0.0
2019-May-12 17:58N 49°17' W 123°06'0 0.0
2019-May-12 17:28N 49°17' W 123°06'0 0.0
2019-May-12 17:00N 49°17' W 123°06'0 0.0
2019-May-12 16:30N 49°17' W 123°06'0 0.0
2019-May-12 16:00N 49°17' W 123°06'0 0.0
2019-May-12 15:30N 49°17' W 123°06'0 0.0
2019-May-12 15:00N 49°17' W 123°06'0 0.0
2019-May-12 14:29N 49°17' W 123°06'0 0.0
2019-May-12 13:59N 49°17' W 123°06'0 0.0
2019-May-12 13:30N 49°17' W 123°06'1 1.1
2019-May-12 13:01N 49°18' W 123°06'510.1
2019-May-12 12:30N 49°19' W 123°14'917.4
2019-May-12 12:00N 49°11' W 123°19'816.2
2019-May-12 11:30N 49°03' W 123°18'917.6
2019-May-12 11:00N 48°56' W 123°09'917.9
2019-May-12 10:30N 48°49' W 123°00'816.8
2019-May-12 10:00N 48°44' W 123°10'3178.7
2019-May-12 10:00N 48°42' W 123°06'815.7 220 / 361011.410.8 10.0 9.011.0
2019-May-12 09:30N 48°37' W 123°14'1019.4
2019-May-12 09:00N 48°28' W 123°10'816.3
2019-May-12 08:30N 48°22' W 123°19'4 8.5
2019-May-12 08:00N 48°20' W 123°24'611.4
2019-May-12 07:30N 48°15' W 123°28'918.5
2019-May-12 07:00N 48°14' W 123°42'918.9
2019-May-12 06:30N 48°14' W 123°56'2345.5
2019-May-12 06:00N 48°23' W 124°27'181341.5
2019-May-12 06:00N 48°12' W 124°06'2448.8 350 / 211012.910.8 11.0 9.010.0
2019-May-12 05:30N 48°26' W 124°35'611.4
2019-May-12 05:00N 48°29' W 124°42'612.0
2019-May-12 04:31N 48°29' W 124°51'612.7
2019-May-12 04:00N 48°27' W 125°01'918.7
2019-May-12 03:30N 48°19' W 125°06'918.1
2019-May-12 03:01N 48°10' W 125°11'714.7
2019-May-12 02:30N 48°03' W 125°14'917.8
2019-May-12 02:00N 47°55' W 125°18'1617.5
2019-May-12 01:05N 47°39' W 125°18'517.7
2019-May-12 00:48N 47°34' W 125°18'517.4
2019-May-12 00:29N 47°28' W 125°18'816.8
2019-May-12 00:00N 47°20' W 125°18'1117.2
2019-May-11 23:22N 47°09' W 125°17'1426.5
2019-May-11 22:50N 46°55' W 125°17'1 3.2
2019-May-11 22:30N 46°54' W 125°17'918.1
2019-May-11 22:00N 46°45' W 125°16'4275.2
2019-May-11 22:00N 46°42' W 125°12'714.8 240 / 151015.8 5.4 11.0 9.015.0
2019-May-11 21:30N 46°36' W 125°17'917.7
2019-May-11 21:00N 46°27' W 125°18'917.2
2019-May-11 20:30N 46°19' W 125°15'917.6
2019-May-11 20:00N 46°10' W 125°15'1020.2
2019-May-11 19:30N 45°60' W 125°15'1020.7
2019-May-11 19:00N 45°49' W 125°14'1120.9
2019-May-11 18:30N 45°39' W 125°14'1020.4
2019-May-11 18:00N 45°29' W 125°13'1020.8
2019-May-11 17:30N 45°18' W 125°13'1220.9
2019-May-11 16:55N 45°06' W 125°12'820.5
2019-May-11 16:30N 44°58' W 125°12'1620.5
2019-May-11 15:45N 44°42' W 125°12'520.4
2019-May-11 15:30N 44°37' W 125°11'1020.4
2019-May-11 15:00N 44°27' W 125°11'1120.4
2019-May-11 14:28N 44°16' W 125°10'1020.7
2019-May-11 14:01N 44°06' W 125°10'6374.0
2019-May-11 14:00N 44°12' W 125°06'1633.3 340 / 151014.6 5.4 11.010.015.0
2019-May-11 13:30N 43°56' W 125°10'1020.4
2019-May-11 13:00N 43°46' W 125°09'1020.4
2019-May-11 12:30N 43°36' W 125°09'1020.4
2019-May-11 12:00N 43°26' W 125°09'1020.5
2019-May-11 11:30N 43°15' W 125°08'1020.8
2019-May-11 11:00N 43°05' W 125°08'1121.3
2019-May-11 10:30N 42°54' W 125°07'1020.2
2019-May-11 10:00N 42°44' W 125°07'2139.7
2019-May-11 10:00N 42°42' W 125°06'816.2 340 / 211013.0 5.4 12.011.012.0
2019-May-11 09:30N 42°34' W 125°07'1020.8
2019-May-11 09:00N 42°24' W 125°06'1020.7
2019-May-11 08:30N 42°13' W 125°06'1020.1
2019-May-11 08:00N 42°03' W 125°06'1019.5
2019-May-11 07:30N 41°54' W 125°05'1018.8
2019-May-11 06:59N 41°44' W 125°05'919.3
2019-May-11 06:31N 41°35' W 125°04'1019.8
2019-May-11 06:00N 41°25' W 125°04'1019.4
2019-May-11 05:30N 41°15' W 125°03'2320.6
2019-May-11 04:24N 40°52' W 125°02'7719.8
2019-May-11 00:32N 39°38' W 124°40'019.0
2019-May-11 00:30N 39°37' W 124°40'1019.3
2019-May-11 00:00N 39°28' W 124°35'2120.1
2019-May-10 22:59N 39°09' W 124°26'2020.9
2019-May-10 22:00N 38°50' W 124°17'4342.1
2019-May-10 22:00N 38°48' W 124°12'917.0 300 / 81010.7 5.4 11.510.513.0
2019-May-10 21:29N 38°39' W 124°12'1020.7
2019-May-10 21:00N 38°30' W 124°09'1020.6
2019-May-10 20:30N 38°21' W 124°03'1020.8
2019-May-10 20:00N 38°11' W 123°59'1020.9
2019-May-10 19:30N 38°01' W 123°54'1121.2
2019-May-10 19:00N 37°51' W 123°50'1020.7
2019-May-10 18:30N 37°42' W 123°44'1020.4
2019-May-10 18:00N 37°33' W 123°37'1720.3
2019-May-10 17:09N 37°18' W 123°25'420.2
2019-May-10 16:56N 37°15' W 123°23'2020.5
2019-May-10 15:57N 36°58' W 123°09'1020.8
2019-May-10 15:29N 36°49' W 123°03'1220.9
2019-May-10 14:55N 36°39' W 122°55'1620.1
2019-May-10 14:07N 36°25' W 122°44'  
Track history (hours):
 
Tides and Currents Weather Stations Pressure Air Temp Water Temp Dewpoint Dewpoint Depression Visibility Wind Speed Wind Dir Waves Ship Positions

Star Princess

Operator: Princess Cruises

Last reported at 2019-May-20 14:00 UTC. Time now 2019-May-20 16:27 UTC.
Position N 49°30' W 127°36'.

Length 289.6 m; beam 36 m; draft 8.4 m.

Type: Ship. MMSI: 310361000.

Wind from 120 at 26 knots

Barometer 1006.7 mb
Air temperature 11.3 ° C
Visibility: greater than 10.8 NM
Dewpoint 7.1 ° C
Water temperature 11.0 ° C

Date/timePositionNaut miles runAvg speedWind from/ knotsBaromVisibWave heightAir tempDewpointWater temp
2019-May-20 14:00N 49°30' W 127°36'3917.3 120 / 261006.710.8 11.3 7.111.0
2019-May-20 11:44N 49°07' W 126°47'717.5
2019-May-20 11:19N 49°03' W 126°38'617.6
2019-May-20 11:00N 49°00' W 126°30'917.9
2019-May-20 10:30N 48°56' W 126°19'917.8
2019-May-20 10:00N 48°51' W 126°08'7474.4
2019-May-20 10:00N 48°54' W 126°18'1633.9 140 / 251007.910.8 11.0 9.012.0
2019-May-20 09:30N 48°46' W 125°56'918.0
2019-May-20 09:01N 48°42' W 125°44'917.9
2019-May-20 08:30N 48°37' W 125°32'918.4
2019-May-20 08:00N 48°33' W 125°21'918.1
2019-May-20 07:30N 48°31' W 125°07'917.8
2019-May-20 07:01N 48°31' W 124°54'917.7
2019-May-20 06:30N 48°30' W 124°40'918.8
2019-May-20 06:01N 48°26' W 124°27'2448.2
2019-May-20 05:30N 48°17' W 123°54'510.3
2019-May-20 04:58N 48°16' W 123°45'611.2
2019-May-20 04:29N 48°15' W 123°37'4 7.2
2019-May-20 03:56N 48°15' W 123°32'511.8
2019-May-20 03:30N 48°12' W 123°25'610.8
2019-May-20 03:00N 48°10' W 123°18'917.4
2019-May-20 02:30N 48°13' W 123°05'917.5
2019-May-20 02:00N 48°12' W 122°52'816.1
2019-May-20 01:30N 48°08' W 122°42'815.8
2019-May-20 01:00N 48°01' W 122°37'816.8
2019-May-20 00:30N 47°55' W 122°29'918.1
2019-May-20 00:00N 47°46' W 122°26'816.5
2019-May-19 23:31N 47°38' W 122°26'2 3.6
2019-May-19 23:00N 47°38' W 122°23'0 0.0
2019-May-19 22:30N 47°38' W 122°23'0 0.0
2019-May-19 22:00N 47°38' W 122°23'0 0.0
2019-May-19 21:30N 47°38' W 122°23'0 0.0
2019-May-19 21:00N 47°38' W 122°23'0 0.0
2019-May-19 20:30N 47°38' W 122°23'0 0.0
2019-May-19 20:00N 47°38' W 122°23'0 0.0
2019-May-19 19:30N 47°38' W 122°23'0 0.0
2019-May-19 19:00N 47°38' W 122°23'0 0.0
2019-May-19 18:30N 47°38' W 122°23'0 0.0
2019-May-19 18:00N 47°38' W 122°23'0 0.0
2019-May-19 17:30N 47°38' W 122°23'0 0.0
2019-May-19 17:00N 47°38' W 122°23'0 0.0
2019-May-19 16:30N 47°38' W 122°23'0 0.0
2019-May-19 16:00N 47°38' W 122°23'0 0.0
2019-May-19 15:30N 47°38' W 122°23'0 0.0
2019-May-19 15:00N 47°38' W 122°23'0 0.0
2019-May-19 14:30N 47°38' W 122°23'0 0.0
2019-May-19 14:00N 47°38' W 122°23'0 0.0
2019-May-19 13:30N 47°38' W 122°23'0 0.0
2019-May-19 13:00N 47°38' W 122°23'0 0.0
2019-May-19 12:30N 47°38' W 122°23'1 2.7
2019-May-19 12:00N 47°37' W 122°25'611.1
2019-May-19 11:30N 47°42' W 122°28'714.1
2019-May-19 11:00N 47°49' W 122°28'815.1
2019-May-19 10:30N 47°56' W 122°32'1019.8
2019-May-19 10:00N 48°05' W 122°39'1020.0
2019-May-19 09:30N 48°11' W 122°51'1019.5
2019-May-19 09:00N 48°12' W 123°06'918.8
2019-May-19 08:30N 48°10' W 123°19'811.1
2019-May-19 07:45N 48°15' W 123°30'518.4
2019-May-19 07:27N 48°20' W 123°27'4 9.8
2019-May-19 07:00N 48°24' W 123°24'1 2.1
2019-May-19 06:30N 48°25' W 123°24'0 0.0
2019-May-19 05:57N 48°25' W 123°24'0 0.0
2019-May-19 05:29N 48°25' W 123°24'0 0.0
2019-May-19 04:59N 48°25' W 123°24'0 0.0
2019-May-19 04:26N 48°25' W 123°24'0 0.0
2019-May-19 03:59N 48°25' W 123°24'0 0.0
2019-May-19 03:28N 48°25' W 123°24'0 0.0
2019-May-19 02:58N 48°25' W 123°24'0 0.0
2019-May-19 02:28N 48°25' W 123°24'0 0.0
2019-May-19 01:58N 48°25' W 123°24'0 0.7
2019-May-19 01:30N 48°25' W 123°24'2 3.4
2019-May-19 01:00N 48°23' W 123°24'511.1
2019-May-19 00:30N 48°18' W 123°25'917.4
2019-May-19 00:00N 48°13' W 123°37'1018.8
2019-May-18 23:30N 48°13' W 123°51'919.2
2019-May-18 23:00N 48°16' W 124°04'1019.1
2019-May-18 22:30N 48°20' W 124°18'918.2
2019-May-18 22:00N 48°24' W 124°30'1019.6
2019-May-18 21:30N 48°28' W 124°43'1020.6
2019-May-18 21:00N 48°29' W 124°59'1019.1
2019-May-18 20:30N 48°31' W 125°13'918.4
2019-May-18 20:00N 48°36' W 125°24'918.4
2019-May-18 19:30N 48°42' W 125°35'815.6
2019-May-18 19:01N 48°47' W 125°44'917.3
2019-May-18 18:30N 48°53' W 125°54'816.4
2019-May-18 18:01N 48°58' W 126°03'918.3
2019-May-18 17:31N 49°04' W 126°14'918.0
2019-May-18 17:00N 49°09' W 126°25'1018.3
2019-May-18 16:29N 49°14' W 126°38'9317.5
2019-May-18 11:09N 50°15' W 128°27'317.0
2019-May-18 10:59N 50°17' W 128°30'1217.5
2019-May-18 10:18N 50°25' W 128°44'519.1
2019-May-18 10:00N 50°29' W 128°50'1019.3
2019-May-18 09:28N 50°36' W 129°01'1119.9
2019-May-18 08:55N 50°44' W 129°14'1319.5
2019-May-18 08:15N 50°53' W 129°29'619.1
2019-May-18 07:55N 50°57' W 129°36'818.5
2019-May-18 07:28N 51°03' W 129°46'6715.0
2019-May-18 03:00N 51°48' W 131°06'3030.3 290 / 491003.6 5.4 11.0 9.011.0
2019-May-18 02:00N 52°12' W 131°36'6913.9 280 / 411003.1 5.4 11.0 9.011.0
2019-May-17 21:00N 53°06' W 132°48'14120.1 310 / 471012.710.8 8.5 7.010.0
2019-May-17 14:00N 55°18' W 134°12'   320 / 251003.5 5.4 8.5 7.010.0
2019-May-15 03:00N 56°06' W 132°48'79 5.2 140 / 261008.710.8 10.0 7.5 9.0
2019-May-14 11:51N 55°09' W 131°11'1911.9
2019-May-14 10:16N 54°50' W 131°08'830.0
2019-May-14 10:00N 54°42' W 131°06'6 8.7 190 / 131014.410.8 9.5 7.410.0
2019-May-14 09:18N 54°39' W 131°16'512.0
2019-May-14 08:52N 54°34' W 131°16'412.2
2019-May-14 08:30N 54°30' W 131°16'612.2
2019-May-14 08:00N 54°24' W 131°15'612.1
2019-May-14 07:30N 54°18' W 131°15'612.3
2019-May-14 07:00N 54°12' W 131°15'612.2
2019-May-14 06:31N 54°06' W 131°15'612.0
2019-May-14 06:01N 53°60' W 131°12'611.9
2019-May-14 05:30N 53°54' W 131°08'612.1
2019-May-14 05:00N 53°49' W 131°04'611.9
2019-May-14 04:30N 53°43' W 131°00'612.1
2019-May-14 04:00N 53°38' W 130°55'612.2
2019-May-14 03:30N 53°32' W 130°52'612.3
2019-May-14 03:00N 53°27' W 130°48'612.4
2019-May-14 02:31N 53°22' W 130°42'713.5
2019-May-14 02:00N 53°16' W 130°36'714.2
2019-May-14 01:30N 53°10' W 130°29'714.1
2019-May-14 01:00N 53°04' W 130°23'714.1
2019-May-14 00:31N 52°58' W 130°16'714.0
2019-May-14 00:00N 52°53' W 130°09'814.3
2019-May-13 23:25N 52°46' W 130°01'613.9
2019-May-13 23:00N 52°41' W 129°56'713.9
2019-May-13 22:29N 52°35' W 129°49'713.7
2019-May-13 22:01N 52°30' W 129°43'3189.0
2019-May-13 22:00N 52°30' W 129°48'918.9 160 / 221013.910.8 10.5 8.510.0
2019-May-13 21:30N 52°24' W 129°36'713.6
2019-May-13 21:01N 52°19' W 129°30'713.7
2019-May-13 20:30N 52°13' W 129°24'713.8
2019-May-13 20:00N 52°07' W 129°17'914.1
2019-May-13 19:22N 52°00' W 129°09'514.2
2019-May-13 19:00N 51°56' W 129°03'814.1
2019-May-13 18:27N 51°49' W 128°57'613.8
2019-May-13 18:00N 51°44' W 128°51'713.8
2019-May-13 17:30N 51°39' W 128°44'713.6
2019-May-13 17:01N 51°33' W 128°38'917.7
2019-May-13 16:31N 51°26' W 128°30'918.1
2019-May-13 16:01N 51°18' W 128°22'917.8
2019-May-13 15:31N 51°12' W 128°12'918.1
2019-May-13 15:00N 51°06' W 128°01'1117.6
2019-May-13 14:24N 50°60' W 127°47'1433.9
2019-May-13 14:00N 50°48' W 127°36'796.7 130 / 211013.010.8 16.012.814.0
2019-May-13 13:55N 50°55' W 127°39'819.0
2019-May-13 13:28N 50°50' W 127°28'918.8
2019-May-13 13:00N 50°47' W 127°15'918.9
2019-May-13 12:30N 50°43' W 127°01'918.4
2019-May-13 12:00N 50°39' W 126°48'917.4
2019-May-13 11:28N 50°32' W 126°40'1119.3
2019-May-13 10:53N 50°30' W 126°22'819.2
2019-May-13 10:28N 50°28' W 126°10'919.2
2019-May-13 10:00N 50°25' W 125°57'1020.0
2019-May-13 09:30N 50°22' W 125°42'919.1
2019-May-13 09:00N 50°20' W 125°27'816.4
2019-May-13 08:30N 50°13' W 125°23'612.2
2019-May-13 08:00N 50°07' W 125°19'713.5
2019-May-13 07:30N 50°01' W 125°13'613.0
2019-May-13 07:00N 49°57' W 125°06'612.7
2019-May-13 06:30N 49°53' W 124°59'612.7
2019-May-13 06:00N 49°49' W 124°51'612.7
2019-May-13 05:30N 49°45' W 124°43'612.8
2019-May-13 05:00N 49°41' W 124°35'612.7
2019-May-13 04:30N 49°37' W 124°28'612.9
2019-May-13 04:00N 49°33' W 124°19'815.0
2019-May-13 03:28N 49°29' W 124°09'714.7
2019-May-13 03:00N 49°26' W 123°59'715.0
2019-May-13 02:30N 49°24' W 123°49'815.1
2019-May-13 02:00N 49°22' W 123°37'7640.2
2019-May-13 02:00N 49°24' W 123°48'1429.9 100 / 241016.010.8 16.012.814.0
2019-May-13 01:30N 49°20' W 123°27'714.2
2019-May-13 01:00N 49°20' W 123°16'611.7
2019-May-13 00:30N 49°18' W 123°07'1 2.2
2019-May-13 00:00N 49°17' W 123°06'0 0.0
2019-May-12 23:30N 49°17' W 123°06'0 0.0
2019-May-12 23:00N 49°17' W 123°06'0 0.0
2019-May-12 22:30N 49°17' W 123°06'0 0.0
2019-May-12 22:00N 49°17' W 123°06'0 0.0
2019-May-12 21:29N 49°17' W 123°06'0 0.0
2019-May-12 20:59N 49°17' W 123°06'0 0.0
2019-May-12 20:29N 49°17' W 123°06'0 0.0
2019-May-12 19:59N 49°17' W 123°06'0 0.0
2019-May-12 19:28N 49°17' W 123°06'0 0.0
2019-May-12 18:58N 49°17' W 123°06'0 0.0
2019-May-12 18:28N 49°17' W 123°06'0 0.0
2019-May-12 17:58N 49°17' W 123°06'0 0.0
2019-May-12 17:28N 49°17' W 123°06'0 0.0
2019-May-12 17:00N 49°17' W 123°06'0 0.0
2019-May-12 16:30N 49°17' W 123°06'0 0.0
2019-May-12 16:00N 49°17' W 123°06'0 0.0
2019-May-12 15:30N 49°17' W 123°06'0 0.0
2019-May-12 15:00N 49°17' W 123°06'0 0.0
2019-May-12 14:29N 49°17' W 123°06'0 0.0
2019-May-12 13:59N 49°17' W 123°06'0 0.0
2019-May-12 13:30N 49°17' W 123°06'1 1.1
2019-May-12 13:01N 49°18' W 123°06'510.1
2019-May-12 12:30N 49°19' W 123°14'917.4
2019-May-12 12:00N 49°11' W 123°19'816.2
2019-May-12 11:30N 49°03' W 123°18'917.6
2019-May-12 11:00N 48°56' W 123°09'917.9
2019-May-12 10:30N 48°49' W 123°00'816.8
2019-May-12 10:00N 48°44' W 123°10'3178.7
2019-May-12 10:00N 48°42' W 123°06'815.7 220 / 361011.410.8 10.0 9.011.0
2019-May-12 09:30N 48°37' W 123°14'1019.4
2019-May-12 09:00N 48°28' W 123°10'816.3
2019-May-12 08:30N 48°22' W 123°19'4 8.5
2019-May-12 08:00N 48°20' W 123°24'611.4
2019-May-12 07:30N 48°15' W 123°28'918.5
2019-May-12 07:00N 48°14' W 123°42'918.9
2019-May-12 06:30N 48°14' W 123°56'2345.5
2019-May-12 06:00N 48°23' W 124°27'181341.5
2019-May-12 06:00N 48°12' W 124°06'2448.8 350 / 211012.910.8 11.0 9.010.0
2019-May-12 05:30N 48°26' W 124°35'611.4
2019-May-12 05:00N 48°29' W 124°42'612.0
2019-May-12 04:31N 48°29' W 124°51'612.7
2019-May-12 04:00N 48°27' W 125°01'918.7
2019-May-12 03:30N 48°19' W 125°06'918.1
2019-May-12 03:01N 48°10' W 125°11'714.7
2019-May-12 02:30N 48°03' W 125°14'917.8
2019-May-12 02:00N 47°55' W 125°18'1617.5
2019-May-12 01:05N 47°39' W 125°18'517.7
2019-May-12 00:48N 47°34' W 125°18'517.4
2019-May-12 00:29N 47°28' W 125°18'816.8
2019-May-12 00:00N 47°20' W 125°18'1117.2
2019-May-11 23:22N 47°09' W 125°17'1426.5
2019-May-11 22:50N 46°55' W 125°17'1 3.2
2019-May-11 22:30N 46°54' W 125°17'918.1
2019-May-11 22:00N 46°45' W 125°16'4275.2
2019-May-11 22:00N 46°42' W 125°12'714.8 240 / 151015.8 5.4 11.0 9.015.0
2019-May-11 21:30N 46°36' W 125°17'917.7
2019-May-11 21:00N 46°27' W 125°18'917.2
2019-May-11 20:30N 46°19' W 125°15'917.6
2019-May-11 20:00N 46°10' W 125°15'1020.2
2019-May-11 19:30N 45°60' W 125°15'1020.7
2019-May-11 19:00N 45°49' W 125°14'1120.9
2019-May-11 18:30N 45°39' W 125°14'1020.4
2019-May-11 18:00N 45°29' W 125°13'1020.8
2019-May-11 17:30N 45°18' W 125°13'1220.9
2019-May-11 16:55N 45°06' W 125°12'820.5
2019-May-11 16:30N 44°58' W 125°12'1620.5
2019-May-11 15:45N 44°42' W 125°12'520.4
2019-May-11 15:30N 44°37' W 125°11'1020.4
2019-May-11 15:00N 44°27' W 125°11'1120.4
2019-May-11 14:28N 44°16' W 125°10'1020.7
2019-May-11 14:01N 44°06' W 125°10'6374.0
2019-May-11 14:00N 44°12' W 125°06'1633.3 340 / 151014.6 5.4 11.010.015.0
2019-May-11 13:30N 43°56' W 125°10'1020.4
2019-May-11 13:00N 43°46' W 125°09'1020.4
2019-May-11 12:30N 43°36' W 125°09'1020.4
2019-May-11 12:00N 43°26' W 125°09'1020.5
2019-May-11 11:30N 43°15' W 125°08'1020.8
2019-May-11 11:00N 43°05' W 125°08'1121.3
2019-May-11 10:30N 42°54' W 125°07'1020.2
2019-May-11 10:00N 42°44' W 125°07'2139.7
2019-May-11 10:00N 42°42' W 125°06'816.2 340 / 211013.0 5.4 12.011.012.0
2019-May-11 09:30N 42°34' W 125°07'1020.8
2019-May-11 09:00N 42°24' W 125°06'1020.7
2019-May-11 08:30N 42°13' W 125°06'1020.1
2019-May-11 08:00N 42°03' W 125°06'1019.5
2019-May-11 07:30N 41°54' W 125°05'1018.8
2019-May-11 06:59N 41°44' W 125°05'919.3
2019-May-11 06:31N 41°35' W 125°04'1019.8
2019-May-11 06:00N 41°25' W 125°04'1019.4
2019-May-11 05:30N 41°15' W 125°03'2320.6
2019-May-11 04:24N 40°52' W 125°02'7719.8
2019-May-11 00:32N 39°38' W 124°40'019.0
2019-May-11 00:30N 39°37' W 124°40'1019.3
2019-May-11 00:00N 39°28' W 124°35'2120.1
2019-May-10 22:59N 39°09' W 124°26'2020.9
2019-May-10 22:00N 38°50' W 124°17'4342.1
2019-May-10 22:00N 38°48' W 124°12'917.0 300 / 81010.7 5.4 11.510.513.0
2019-May-10 21:29N 38°39' W 124°12'1020.7
2019-May-10 21:00N 38°30' W 124°09'1020.6
2019-May-10 20:30N 38°21' W 124°03'1020.8
2019-May-10 20:00N 38°11' W 123°59'1020.9
2019-May-10 19:30N 38°01' W 123°54'1121.2
2019-May-10 19:00N 37°51' W 123°50'1020.7
2019-May-10 18:30N 37°42' W 123°44'1020.4
2019-May-10 18:00N 37°33' W 123°37'1720.3
2019-May-10 17:09N 37°18' W 123°25'420.2
2019-May-10 16:56N 37°15' W 123°23'2020.5
2019-May-10 15:57N 36°58' W 123°09'1020.8
2019-May-10 15:29N 36°49' W 123°03'1220.9
2019-May-10 14:55N 36°39' W 122°55'1620.1
2019-May-10 14:07N 36°25' W 122°44'  

Dump ship's entire track history